Time;durP1;ratioP1;P1;durP2;ratioP2;P2;SDS_P1;SDS_P2;PMS_P1;PMS_P2;Temp;Humidity;BMP_temperature;BMP_pressure;BME280_temperature;BME280_humidity;BME280_pressure;Samples;Min_cycle;Max_cycle;Signal;HPM_P1;HPM_P2
2020/12/19 00:02:14;;;;;;;13.52;11.93;;;7.90;96.70;;;;;;4982818;28;20162;-88
2020/12/19 00:04:41;;;;;;;15.57;12.10;;;7.90;96.70;;;;;;4981559;28;20042;-87
2020/12/19 00:07:09;;;;;;;15.13;12.15;;;7.90;96.70;;;;;;4981853;28;20042;-86
2020/12/19 00:09:36;;;;;;;14.45;12.48;;;7.90;96.70;;;;;;4981150;28;20039;-86
2020/12/19 00:12:04;;;;;;;13.75;12.25;;;7.90;96.70;;;;;;4967507;28;20112;-87
2020/12/19 00:14:32;;;;;;;17.17;12.18;;;7.80;96.70;;;;;;4982145;28;20038;-87
2020/12/19 00:16:59;;;;;;;16.92;13.30;;;7.80;96.70;;;;;;4966741;28;20046;-88
2020/12/19 00:19:27;;;;;;;16.67;12.93;;;7.80;96.70;;;;;;4984054;28;20045;-87
2020/12/19 00:21:54;;;;;;;14.38;11.98;;;7.70;96.70;;;;;;4980969;28;20145;-87
2020/12/19 00:24:22;;;;;;;15.82;12.05;;;7.80;96.70;;;;;;4979662;28;20042;-87
2020/12/19 00:26:49;;;;;;;14.48;10.90;;;7.70;96.70;;;;;;4980311;28;20061;-87
2020/12/19 00:29:17;;;;;;;11.80;10.43;;;7.70;96.70;;;;;;5008441;28;20046;-87
2020/12/19 00:31:44;;;;;;;12.25;10.43;;;7.70;96.70;;;;;;4976283;28;20049;-86
2020/12/19 00:34:11;;;;;;;10.45;9.25;;;7.70;96.70;;;;;;4982474;28;20042;-87
2020/12/19 00:36:38;;;;;;;11.63;9.48;;;7.70;96.70;;;;;;4980807;28;20595;-87
2020/12/19 00:39:06;;;;;;;11.15;8.90;;;7.60;96.70;;;;;;4966328;28;20571;-87
2020/12/19 00:41:34;;;;;;;11.60;10.10;;;7.60;96.70;;;;;;4980261;28;20681;-87
2020/12/19 00:44:01;;;;;;;13.00;9.93;;;7.60;96.70;;;;;;4981040;28;20053;-87
2020/12/19 00:46:28;;;;;;;14.57;10.40;;;7.60;96.70;;;;;;4981474;28;20076;-86
2020/12/19 00:48:56;;;;;;;11.02;9.30;;;7.60;96.70;;;;;;4961696;28;20050;-87
2020/12/19 00:51:24;;;;;;;15.38;10.73;;;7.50;96.70;;;;;;4981351;28;20493;-87
2020/12/19 00:53:51;;;;;;;12.98;9.98;;;7.50;96.70;;;;;;4964710;28;20061;-86
2020/12/19 00:56:20;;;;;;;13.90;11.25;;;7.40;96.70;;;;;;4959773;28;20102;-87
2020/12/19 00:58:49;;;;;;;16.73;10.77;;;7.50;96.70;;;;;;4981488;28;20489;-87
2020/12/19 01:01:18;;;;;;;13.57;10.82;;;7.50;96.70;;;;;;4984416;28;20034;-87
2020/12/19 01:03:47;;;;;;;14.50;11.43;;;7.50;96.70;;;;;;4980075;28;20038;-87
2020/12/19 01:06:15;;;;;;;14.77;11.02;;;7.50;96.70;;;;;;4979983;28;20074;-87
2020/12/19 01:08:43;;;;;;;15.00;10.88;;;7.50;96.70;;;;;;4964597;28;20049;-86
2020/12/19 01:11:29;;;;;;;13.98;11.43;;;7.40;96.70;;;;;;4981871;28;20046;-86
2020/12/19 01:13:57;;;;;;;16.50;12.05;;;7.50;96.70;;;;;;4962120;28;20417;-87
2020/12/19 01:16:26;;;;;;;17.73;12.45;;;7.60;96.70;;;;;;4979878;28;20073;-86
2020/12/19 01:18:56;;;;;;;18.95;13.30;;;7.60;96.70;;;;;;4977419;28;20050;-87
2020/12/19 01:21:25;;;;;;;18.60;13.45;;;7.60;96.70;;;;;;4981305;28;20085;-87
2020/12/19 01:23:53;;;;;;;15.25;12.15;;;7.60;96.70;;;;;;4980647;28;20043;-87
2020/12/19 01:26:21;;;;;;;18.10;13.23;;;7.50;96.70;;;;;;4979571;28;20042;-87
2020/12/19 01:28:49;;;;;;;17.00;12.88;;;7.50;96.70;;;;;;4960299;28;20057;-87
2020/12/19 01:31:19;;;;;;;17.15;12.75;;;7.40;96.70;;;;;;4964639;28;20054;-87
2020/12/19 01:33:47;;;;;;;15.68;11.65;;;7.40;96.70;;;;;;4981823;28;20046;-87
2020/12/19 01:36:15;;;;;;;14.82;11.38;;;7.40;96.70;;;;;;4964380;28;20055;-87
2020/12/19 01:38:43;;;;;;;15.38;11.63;;;7.30;96.70;;;;;;4981951;28;20051;-86
2020/12/19 01:41:10;;;;;;;14.93;11.23;;;7.30;96.70;;;;;;4981569;28;20041;-87
2020/12/19 01:43:47;;;;;;;13.00;9.80;;;7.30;96.70;;;;;;4962094;28;20527;-87
2020/12/19 01:46:26;;;;;;;13.52;10.68;;;7.30;96.70;;;;;;4980757;28;20042;-87
2020/12/19 01:48:54;;;;;;;12.13;9.35;;;7.30;96.70;;;;;;4973448;28;20485;-86
2020/12/19 01:51:21;;;;;;;11.52;9.45;;;7.30;96.70;;;;;;4962699;28;20057;-87
2020/12/19 01:53:49;;;;;;;11.48;9.50;;;7.40;96.70;;;;;;4961898;28;20050;-87
2020/12/19 01:56:23;;;;;;;13.68;10.85;;;7.50;96.70;;;;;;4982555;28;20106;-87
2020/12/19 01:58:50;;;;;;;12.70;10.23;;;7.50;96.70;;;;;;4980312;28;20046;-86
2020/12/19 02:01:18;;;;;;;14.88;10.10;;;7.50;96.70;;;;;;5011762;28;20038;-86
2020/12/19 02:03:54;;;;;;;11.48;10.15;;;7.60;96.70;;;;;;4966545;28;20555;-87
2020/12/19 02:06:24;;;;;;;11.50;10.30;;;7.60;96.70;;;;;;4965898;28;20039;-86
2020/12/19 02:08:52;;;;;;;13.30;10.23;;;7.70;96.70;;;;;;4974455;28;20503;-87
2020/12/19 02:11:23;;;;;;;13.23;10.55;;;7.70;96.70;;;;;;4966199;28;20148;-86
2020/12/19 02:13:50;;;;;;;11.38;9.45;;;7.70;96.70;;;;;;4978960;28;20038;-87
2020/12/19 02:16:18;;;;;;;14.65;10.10;;;7.70;96.70;;;;;;4981195;28;20038;-86
2020/12/19 02:18:46;;;;;;;12.20;9.50;;;7.70;96.70;;;;;;4980543;28;20050;-87
2020/12/19 02:21:14;;;;;;;11.68;9.07;;;7.70;96.70;;;;;;4964975;28;20042;-87
2020/12/19 02:23:42;;;;;;;11.10;9.30;;;7.70;96.70;;;;;;4979629;28;20049;-86
2020/12/19 02:26:09;;;;;;;10.93;9.13;;;7.70;96.70;;;;;;4981303;28;20041;-86
2020/12/19 02:28:37;;;;;;;12.05;9.48;;;7.70;96.70;;;;;;4985537;28;20042;-86
2020/12/19 02:31:04;;;;;;;11.57;9.18;;;7.70;96.70;;;;;;4983045;28;20560;-87
2020/12/19 02:33:31;;;;;;;12.13;9.02;;;7.80;96.70;;;;;;4984991;28;20141;-87
2020/12/19 02:36:06;;;;;;;11.48;8.82;;;7.70;96.70;;;;;;4984911;28;20508;-87
2020/12/19 02:38:34;;;;;;;10.73;9.05;;;7.70;96.70;;;;;;4964648;28;20042;-87
2020/12/19 02:41:02;;;;;;;10.65;8.98;;;7.70;96.70;;;;;;4984020;28;20591;-86
2020/12/19 02:43:29;;;;;;;12.77;9.02;;;7.80;96.70;;;;;;4982882;28;20031;-86
2020/12/19 02:45:58;;;;;;;12.43;9.02;;;7.90;96.70;;;;;;4984982;28;20046;-87
2020/12/19 02:48:25;;;;;;;10.35;8.52;;;7.80;96.70;;;;;;4984155;28;20053;-86
2020/12/19 02:50:52;;;;;;;11.98;8.60;;;7.90;96.70;;;;;;4982356;28;20047;-86
2020/12/19 02:53:20;;;;;;;9.95;8.52;;;7.90;96.70;;;;;;4982435;28;20086;-86
2020/12/19 02:55:47;;;;;;;11.57;9.15;;;7.80;96.70;;;;;;4984680;28;20050;-87
2020/12/19 02:58:15;;;;;;;10.73;8.75;;;7.80;96.70;;;;;;5014189;28;20507;-86
2020/12/19 03:00:42;;;;;;;11.98;9.13;;;7.80;96.70;;;;;;4982862;28;20145;-87
2020/12/19 03:03:09;;;;;;;10.52;8.73;;;7.80;96.70;;;;;;4963378;28;20198;-86
2020/12/19 03:05:36;;;;;;;9.07;8.02;;;7.80;96.70;;;;;;4985122;28;20290;-87
2020/12/19 03:08:03;;;;;;;11.95;9.23;;;7.80;96.70;;;;;;4963749;28;20039;-86
2020/12/19 03:10:31;;;;;;;10.95;8.05;;;7.80;96.70;;;;;;4984020;28;20599;-86
2020/12/19 03:13:00;;;;;;;12.57;8.50;;;7.80;96.70;;;;;;4983273;28;20043;-85
2020/12/19 03:15:28;;;;;;;9.35;8.10;;;7.80;96.70;;;;;;4993182;28;20061;-85
2020/12/19 03:17:55;;;;;;;10.48;8.15;;;7.80;96.70;;;;;;4982282;28;20039;-84
2020/12/19 03:20:22;;;;;;;10.07;8.27;;;7.90;96.70;;;;;;4983372;28;20042;-85
2020/12/19 03:22:50;;;;;;;10.68;8.32;;;7.80;96.70;;;;;;4968822;28;20047;-85
2020/12/19 03:25:17;;;;;;;10.48;8.30;;;7.80;96.70;;;;;;4980646;28;20050;-85
2020/12/19 03:27:45;;;;;;;10.45;8.85;;;7.90;96.70;;;;;;4966755;28;20041;-86
2020/12/19 03:30:12;;;;;;;10.40;7.93;;;7.90;96.70;;;;;;4967693;28;20046;-85
2020/12/19 03:32:40;;;;;;;11.38;7.75;;;7.90;96.70;;;;;;4983525;28;20130;-85
2020/12/19 03:35:08;;;;;;;8.55;7.45;;;8.00;96.70;;;;;;4980489;28;20595;-85
2020/12/19 03:37:35;;;;;;;10.30;8.00;;;7.90;96.70;;;;;;4966274;28;20045;-85
2020/12/19 03:40:03;;;;;;;9.00;7.60;;;7.90;96.70;;;;;;4964337;28;20398;-85
2020/12/19 03:42:30;;;;;;;9.20;7.28;;;8.00;96.70;;;;;;4966946;28;20364;-85
2020/12/19 03:44:57;;;;;;;9.90;7.05;;;8.00;96.70;;;;;;4982998;28;20383;-85
2020/12/19 03:47:24;;;;;;;8.65;7.03;;;8.10;96.70;;;;;;4966253;28;20049;-85
2020/12/19 03:49:52;;;;;;;8.18;7.28;;;8.10;96.70;;;;;;4984044;28;20504;-85
2020/12/19 03:52:19;;;;;;;7.80;7.03;;;8.10;96.70;;;;;;4983022;28;20042;-86
2020/12/19 03:54:46;;;;;;;10.77;8.05;;;8.10;96.70;;;;;;4982094;28;20102;-85
2020/12/19 03:57:14;;;;;;;8.38;6.93;;;8.10;96.70;;;;;;4983837;28;20049;-85
2020/12/19 03:59:41;;;;;;;8.80;7.40;;;8.10;96.70;;;;;;4981542;28;20101;-86
2020/12/19 04:02:08;;;;;;;9.10;8.00;;;8.10;96.70;;;;;;4963016;28;20476;-85
2020/12/19 04:04:35;;;;;;;8.57;7.43;;;8.00;96.70;;;;;;4982816;28;20070;-85
2020/12/19 04:07:03;;;;;;;8.85;7.95;;;8.00;96.70;;;;;;4982816;28;20038;-85
2020/12/19 04:09:31;;;;;;;9.93;7.78;;;8.00;96.70;;;;;;4966859;28;20606;-85
2020/12/19 04:11:58;;;;;;;9.85;7.65;;;7.90;96.70;;;;;;4964823;28;20057;-85
2020/12/19 04:14:37;;;;;;;8.88;7.97;;;7.90;96.70;;;;;;4981290;28;20045;-87
2020/12/19 04:17:06;;;;;;;11.15;7.97;;;7.90;96.70;;;;;;4984306;28;20553;-86
2020/12/19 04:19:35;;;;;;;8.90;7.03;;;7.90;96.70;;;;;;4966178;28;20038;-85
2020/12/19 04:22:04;;;;;;;9.27;7.82;;;7.90;96.70;;;;;;4982855;28;20137;-85
2020/12/19 04:24:31;;;;;;;8.40;7.55;;;8.00;96.70;;;;;;4981645;28;20050;-85
2020/12/19 04:26:58;;;;;;;9.35;7.68;;;7.90;96.70;;;;;;4998831;28;20435;-85
2020/12/19 04:29:27;;;;;;;9.40;8.25;;;7.90;96.70;;;;;;4982252;28;20481;-85
2020/12/19 04:31:54;;;;;;;10.15;7.97;;;7.80;96.70;;;;;;4981963;28;20038;-85
2020/12/19 04:34:21;;;;;;;11.52;8.13;;;7.80;96.70;;;;;;4982835;28;20232;-85
2020/12/19 04:36:49;;;;;;;10.68;8.32;;;7.80;96.70;;;;;;4982150;28;20042;-85
2020/12/19 04:39:17;;;;;;;9.55;8.52;;;7.80;96.70;;;;;;4966117;28;20055;-85
2020/12/19 04:41:44;;;;;;;9.32;8.02;;;7.80;96.70;;;;;;4981478;28;20054;-85
2020/12/19 04:44:12;;;;;;;8.93;7.80;;;7.80;96.70;;;;;;4982132;28;20066;-85
2020/12/19 04:46:41;;;;;;;9.63;8.55;;;7.80;96.70;;;;;;4981251;28;20045;-85
2020/12/19 04:49:09;;;;;;;9.13;7.80;;;7.80;96.70;;;;;;4963042;28;20117;-83
2020/12/19 04:51:37;;;;;;;9.50;7.97;;;7.80;96.70;;;;;;4978771;28;20046;-85
2020/12/19 04:54:05;;;;;;;9.48;7.38;;;7.80;96.70;;;;;;4977780;28;20042;-85
2020/12/19 04:56:33;;;;;;;9.45;7.75;;;7.80;96.70;;;;;;4980588;28;20101;-85
2020/12/19 04:59:02;;;;;;;11.60;8.43;;;7.80;96.70;;;;;;4980493;28;20088;-85
2020/12/19 05:01:30;;;;;;;9.95;7.95;;;7.80;96.70;;;;;;4957646;28;20043;-85
2020/12/19 05:03:58;;;;;;;9.48;7.63;;;7.80;96.70;;;;;;4980330;28;20049;-85
2020/12/19 05:06:27;;;;;;;11.25;7.93;;;7.80;96.70;;;;;;4981768;28;20043;-85
2020/12/19 05:08:56;;;;;;;9.27;7.45;;;7.80;96.70;;;;;;4966329;28;20038;-85
2020/12/19 05:11:25;;;;;;;8.82;7.28;;;7.70;96.70;;;;;;4981522;28;20050;-85
2020/12/19 05:13:53;;;;;;;9.23;7.32;;;7.70;96.70;;;;;;4965054;28;20051;-85
2020/12/19 05:16:21;;;;;;;9.43;7.85;;;7.70;96.70;;;;;;4967044;28;20082;-85
2020/12/19 05:18:48;;;;;;;8.38;7.13;;;7.80;96.70;;;;;;4964902;28;20046;-85
2020/12/19 05:21:15;;;;;;;10.32;7.53;;;7.80;96.70;;;;;;4963141;28;20055;-85
2020/12/19 05:23:44;;;;;;;8.40;7.40;;;7.70;96.70;;;;;;5014479;28;20065;-85
2020/12/19 05:26:13;;;;;;;9.57;7.68;;;7.70;96.70;;;;;;4979299;28;20055;-85
2020/12/19 05:28:41;;;;;;;8.77;7.43;;;7.70;96.70;;;;;;4978836;28;20049;-85
2020/12/19 05:31:11;;;;;;;8.82;7.57;;;7.60;96.70;;;;;;4980000;28;20108;-85
2020/12/19 05:33:40;;;;;;;11.85;8.45;;;7.60;96.70;;;;;;5014130;28;20042;-85
2020/12/19 05:36:18;;;;;;;9.85;7.88;;;7.50;96.70;;;;;;4977295;28;20277;-83
2020/12/19 05:38:45;;;;;;;10.90;7.80;;;7.60;96.70;;;;;;4981164;28;20121;-85
2020/12/19 05:41:13;;;;;;;10.32;9.10;;;7.70;96.70;;;;;;4964671;28;20851;-85
2020/12/19 05:43:47;;;;;;;11.45;8.73;;;7.70;96.70;;;;;;4983114;28;20065;-85
2020/12/19 05:46:28;;;;;;;11.00;9.10;;;7.70;96.70;;;;;;4981130;28;20070;-85
2020/12/19 05:48:56;;;;;;;10.40;9.23;;;7.80;96.70;;;;;;4975792;28;20034;-85
2020/12/19 05:51:26;;;;;;;12.27;9.93;;;7.80;96.70;;;;;;4978928;28;20045;-85
2020/12/19 05:53:55;;;;;;;12.45;9.90;;;7.90;96.70;;;;;;4981286;28;20050;-85
2020/12/19 05:56:23;;;;;;;12.23;10.25;;;7.90;96.70;;;;;;4965461;28;20429;-85
2020/12/19 05:58:53;;;;;;;12.05;10.10;;;7.90;96.70;;;;;;4980573;28;20085;-85
2020/12/19 06:01:21;;;;;;;12.32;10.18;;;7.90;96.70;;;;;;4966108;28;20314;-84
2020/12/19 06:03:53;;;;;;;10.43;9.10;;;7.90;96.70;;;;;;4983179;28;20042;-85
2020/12/19 06:06:22;;;;;;;11.07;9.70;;;7.90;96.70;;;;;;4984593;28;20113;-85
2020/12/19 06:08:50;;;;;;;10.70;9.55;;;7.90;96.70;;;;;;4984054;28;20049;-85
2020/12/19 06:11:23;;;;;;;12.80;9.88;;;8.00;96.70;;;;;;4984847;28;20096;-85
2020/12/19 06:13:55;;;;;;;11.27;9.98;;;8.10;96.70;;;;;;4969013;28;20050;-85
2020/12/19 06:16:23;;;;;;;12.07;9.88;;;8.20;96.70;;;;;;4996671;28;20121;-85
2020/12/19 06:19:11;;;;;;;13.25;10.77;;;8.20;96.70;;;;;;4966561;28;20045;-85
2020/12/19 06:21:38;;;;;;;12.30;10.10;;;8.20;96.70;;;;;;4966176;28;20055;-85
2020/12/19 06:24:07;;;;;;;14.20;10.63;;;8.30;96.70;;;;;;4971829;28;20057;-84
2020/12/19 06:26:36;;;;;;;13.27;10.25;;;8.30;96.70;;;;;;4968899;28;20046;-85
2020/12/19 06:29:05;;;;;;;14.15;11.13;;;8.30;96.70;;;;;;4966636;28;20042;-84
2020/12/19 06:31:32;;;;;;;12.70;10.43;;;8.30;96.70;;;;;;4968988;28;20050;-85
2020/12/19 06:34:04;;;;;;;12.02;10.25;;;8.40;96.70;;;;;;4984609;28;20054;-84
2020/12/19 06:36:33;;;;;;;12.93;9.65;;;8.40;96.70;;;;;;4967855;28;20417;-84
2020/12/19 06:39:10;;;;;;;13.65;10.63;;;8.40;96.70;;;;;;4967131;28;20053;-84
2020/12/19 06:41:42;;;;;;;12.18;10.10;;;8.40;96.70;;;;;;4991760;28;20100;-84
2020/12/19 06:44:10;;;;;;;13.15;9.98;;;8.40;96.70;;;;;;5004276;28;20064;-83
2020/12/19 06:46:38;;;;;;;11.15;9.55;;;8.30;96.70;;;;;;4983130;28;20489;-84
2020/12/19 06:49:35;;;;;;;13.30;10.75;;;8.30;96.70;;;;;;4964171;28;20049;-83
2020/12/19 06:52:06;;;;;;;13.30;10.50;;;8.30;96.70;;;;;;4993575;28;20134;-86
2020/12/19 06:54:35;;;;;;;13.73;10.55;;;8.30;96.70;;;;;;4966475;28;20132;-82
2020/12/19 06:57:06;;;;;;;25.88;12.13;;;8.30;96.70;;;;;;4969681;28;20051;-88
2020/12/19 06:59:34;;;;;;;20.98;11.38;;;8.30;96.70;;;;;;4969324;28;20038;-86
2020/12/19 07:02:16;;;;;;;40.33;13.52;;;8.30;96.70;;;;;;4982858;28;20042;-80
2020/12/19 07:04:44;;;;;;;22.73;11.60;;;8.30;96.70;;;;;;4986006;28;20046;-89
2020/12/19 07:07:16;;;;;;;30.95;11.63;;;8.30;96.70;;;;;;5013708;28;20050;-82
2020/12/19 07:09:55;;;;;;;16.30;11.38;;;8.30;96.70;;;;;;4983093;28;20058;-84
2020/12/19 07:12:34;;;;;;;15.73;11.18;;;8.30;96.70;;;;;;4979840;28;20046;-85
2020/12/19 07:15:03;;;;;;;13.63;11.07;;;8.40;96.70;;;;;;4991528;28;20050;-87
2020/12/19 07:17:43;;;;;;;14.43;11.27;;;8.40;96.70;;;;;;4964895;28;20038;-84
2020/12/19 07:20:11;;;;;;;13.18;11.35;;;8.50;96.70;;;;;;4980991;28;20137;-84
2020/12/19 07:22:39;;;;;;;12.55;11.07;;;8.50;96.70;;;;;;4965937;28;20057;-84
2020/12/19 07:25:07;;;;;;;15.35;11.40;;;8.60;96.70;;;;;;4982451;28;20211;-83
2020/12/19 07:27:34;;;;;;;14.15;11.43;;;8.60;96.70;;;;;;4965823;28;20423;-87
2020/12/19 07:30:03;;;;;;;14.68;11.07;;;8.60;96.70;;;;;;4967060;28;20047;-86
2020/12/19 07:32:30;;;;;;;15.43;10.25;;;8.70;96.70;;;;;;4980802;28;20043;-85
2020/12/19 07:34:58;;;;;;;14.68;11.00;;;8.70;96.70;;;;;;4984321;28;20129;-85
2020/12/19 07:37:26;;;;;;;12.85;10.93;;;8.70;96.70;;;;;;4981895;28;20042;-85
2020/12/19 07:40:04;;;;;;;13.52;10.45;;;8.70;96.70;;;;;;4980955;28;20046;-85
2020/12/19 07:42:32;;;;;;;13.82;10.88;;;8.80;96.70;;;;;;5001244;28;20078;-85
2020/12/19 07:44:59;;;;;;;14.52;11.00;;;8.80;96.70;;;;;;4966389;28;20058;-85
2020/12/19 07:47:26;;;;;;;13.05;11.30;;;8.90;96.70;;;;;;4968286;28;20319;-85
2020/12/19 07:49:53;;;;;;;14.88;11.10;;;9.00;96.70;;;;;;4966722;28;20041;-85
2020/12/19 07:52:22;;;;;;;13.68;11.45;;;9.00;96.70;;;;;;4965347;28;20050;-89
2020/12/19 07:54:58;;;;;;;13.93;10.98;;;9.00;96.70;;;;;;4983287;28;20077;-89
2020/12/19 07:57:28;;;;;;;12.43;10.23;;;9.10;96.70;;;;;;4984866;28;20046;-88
2020/12/19 07:59:56;;;;;;;13.25;10.35;;;9.10;96.70;;;;;;4981861;28;20046;-88
2020/12/19 08:02:24;;;;;;;14.77;10.68;;;9.20;96.70;;;;;;4982392;28;20496;-88
2020/12/19 08:04:54;;;;;;;11.70;10.48;;;9.20;96.70;;;;;;4982941;28;20078;-85
2020/12/19 08:07:24;;;;;;;13.07;11.15;;;9.20;96.70;;;;;;4981954;28;20653;-85
2020/12/19 08:10:01;;;;;;;13.10;11.70;;;9.30;96.70;;;;;;4973967;28;20045;-81
2020/12/19 08:12:30;;;;;;;14.60;11.73;;;9.30;96.70;;;;;;4980640;28;20042;-80
2020/12/19 08:15:00;;;;;;;14.48;12.77;;;9.40;96.70;;;;;;4975847;28;20053;-82
2020/12/19 08:17:28;;;;;;;15.98;13.40;;;9.40;96.70;;;;;;4994425;28;20046;-84
2020/12/19 08:19:58;;;;;;;14.23;12.13;;;9.50;96.70;;;;;;4981485;28;20034;-83
2020/12/19 08:22:27;;;;;;;14.18;12.43;;;9.60;96.70;;;;;;4980631;28;20059;-83
2020/12/19 08:24:59;;;;;;;13.82;11.60;;;9.60;96.70;;;;;;4965723;28;20082;-84
2020/12/19 08:27:35;;;;;;;12.35;10.85;;;9.60;96.70;;;;;;4981825;28;20125;-86
2020/12/19 08:30:09;;;;;;;14.43;12.48;;;9.60;96.70;;;;;;4982076;28;20050;-85
2020/12/19 08:32:41;;;;;;;13.90;12.23;;;9.60;96.70;;;;;;4964619;28;20045;-86
2020/12/19 08:35:09;;;;;;;13.95;11.70;;;9.70;96.70;;;;;;5006424;28;20056;-84
2020/12/19 08:37:37;;;;;;;12.95;11.50;;;9.70;96.70;;;;;;4965823;28;20042;-85
2020/12/19 08:40:06;;;;;;;15.13;12.55;;;9.80;96.70;;;;;;4980177;28;20861;-84
2020/12/19 08:42:35;;;;;;;13.65;11.68;;;9.90;96.70;;;;;;4964505;28;20113;-84
2020/12/19 08:45:26;;;;;;;14.00;11.85;;;9.90;96.70;;;;;;4961125;28;20053;-86
2020/12/19 08:47:57;;;;;;;14.02;11.82;;;10.00;96.70;;;;;;4993572;28;20149;-81
2020/12/19 08:50:26;;;;;;;13.85;11.65;;;10.00;96.70;;;;;;4980105;28;20050;-82
2020/12/19 08:53:02;;;;;;;14.30;12.65;;;10.00;96.70;;;;;;4979580;28;20066;-83
2020/12/19 08:55:29;;;;;;;15.23;10.93;;;10.10;96.70;;;;;;4982697;28;20143;-91
2020/12/19 08:57:57;;;;;;;13.70;12.25;;;10.10;96.70;;;;;;4983685;28;20062;-89
2020/12/19 09:00:30;;;;;;;14.63;11.77;;;10.10;96.70;;;;;;4965404;28;20517;-86
2020/12/19 09:03:01;;;;;;;14.18;12.18;;;10.20;96.70;;;;;;4977964;28;20043;-80
2020/12/19 09:05:31;;;;;;;16.55;11.80;;;10.20;96.70;;;;;;4981426;28;20061;-85
2020/12/19 09:07:59;;;;;;;18.15;13.23;;;10.20;96.70;;;;;;4983705;28;20046;-84
2020/12/19 09:10:27;;;;;;;17.05;13.60;;;10.30;96.70;;;;;;4982438;28;20049;-85
2020/12/19 09:13:12;;;;;;;16.63;12.27;;;10.30;96.70;;;;;;4983765;28;20049;-87
2020/12/19 09:15:41;;;;;;;18.70;15.60;;;10.40;96.70;;;;;;4970396;28;20050;-86
2020/12/19 09:18:13;;;;;;;17.05;12.40;;;10.40;96.70;;;;;;4978010;28;20030;-84
2020/12/19 09:20:41;;;;;;;14.48;12.90;;;10.40;96.70;;;;;;4984051;28;20049;-85
2020/12/19 09:23:08;;;;;;;14.63;12.93;;;10.50;96.70;;;;;;4982791;28;20128;-85
2020/12/19 09:25:37;;;;;;;13.02;11.63;;;10.50;96.70;;;;;;4979557;28;20141;-83
2020/12/19 09:28:04;;;;;;;15.13;12.50;;;10.50;96.70;;;;;;4966164;28;20092;-83
2020/12/19 09:30:33;;;;;;;13.98;12.10;;;10.60;96.70;;;;;;4982122;28;20052;-82
2020/12/19 09:33:00;;;;;;;14.32;12.82;;;10.60;96.70;;;;;;4981915;28;20113;-83
2020/12/19 09:35:28;;;;;;;13.82;11.88;;;10.60;96.70;;;;;;4979639;28;20192;-82
2020/12/19 09:37:56;;;;;;;14.27;11.90;;;10.60;96.70;;;;;;4972927;28;20706;-83
2020/12/19 09:40:28;;;;;;;13.02;11.13;;;10.70;96.70;;;;;;4962926;28;20042;-83
2020/12/19 09:42:56;;;;;;;13.13;11.35;;;10.70;96.70;;;;;;4962408;28;20058;-84
2020/12/19 09:45:24;;;;;;;12.60;11.30;;;10.80;96.70;;;;;;4981374;28;20049;-83
2020/12/19 09:47:54;;;;;;;12.30;10.95;;;10.90;96.70;;;;;;4980212;28;20062;-85
2020/12/19 09:50:22;;;;;;;11.02;9.93;;;11.00;96.70;;;;;;4969100;28;20698;-84
2020/12/19 09:52:49;;;;;;;13.23;9.82;;;11.10;96.70;;;;;;4976775;28;20038;-83
2020/12/19 09:55:17;;;;;;;12.98;11.55;;;11.20;96.70;;;;;;5009006;28;20046;-83
2020/12/19 09:57:45;;;;;;;12.75;11.45;;;11.30;96.70;;;;;;4964160;28;20057;-83
2020/12/19 10:00:14;;;;;;;11.98;10.52;;;11.50;96.70;;;;;;4977483;28;20482;-83
2020/12/19 10:02:43;;;;;;;12.10;10.48;;;11.60;96.70;;;;;;4978218;28;20066;-84
2020/12/19 10:05:11;;;;;;;12.43;9.52;;;11.60;96.70;;;;;;4964639;28;20057;-86
2020/12/19 10:07:38;;;;;;;11.23;9.88;;;11.60;96.70;;;;;;4980990;28;20501;-84
2020/12/19 10:10:06;;;;;;;12.82;10.68;;;11.60;96.70;;;;;;4979281;28;20108;-85
2020/12/19 10:12:34;;;;;;;10.98;9.68;;;11.60;96.70;;;;;;4979940;28;20045;-84
2020/12/19 10:15:01;;;;;;;11.75;10.07;;;11.70;96.70;;;;;;4978931;28;20267;-83
2020/12/19 10:17:28;;;;;;;16.80;11.60;;;11.80;96.70;;;;;;4978595;28;20045;-81
2020/12/19 10:19:55;;;;;;;14.02;12.55;;;11.80;96.70;;;;;;4980554;28;20136;-85
2020/12/19 10:22:23;;;;;;;15.82;13.15;;;11.70;96.70;;;;;;4981396;28;20419;-81
2020/12/19 10:24:51;;;;;;;16.60;14.20;;;11.70;96.70;;;;;;4962235;28;20644;-82
2020/12/19 10:27:18;;;;;;;15.70;14.00;;;11.70;96.70;;;;;;4981442;28;20517;-82
2020/12/19 10:29:46;;;;;;;15.27;13.65;;;11.80;96.70;;;;;;4965606;28;20041;-82
2020/12/19 10:32:13;;;;;;;18.67;14.93;;;11.80;96.70;;;;;;4982905;28;20034;-80
2020/12/19 10:34:41;;;;;;;17.85;14.77;;;11.80;96.70;;;;;;4964456;28;20046;-79
2020/12/19 10:37:08;;;;;;;16.77;14.88;;;11.70;96.70;;;;;;4979987;28;20038;-80
2020/12/19 10:39:36;;;;;;;17.15;15.25;;;11.70;96.70;;;;;;4978793;28;20050;-81
2020/12/19 10:42:03;;;;;;;15.48;13.77;;;11.60;96.70;;;;;;4963910;28;20042;-82
2020/12/19 10:44:30;;;;;;;15.68;14.07;;;11.70;96.70;;;;;;4976915;28;20428;-80
2020/12/19 10:46:58;;;;;;;18.30;14.75;;;11.70;96.70;;;;;;4979698;28;20065;-82
2020/12/19 10:49:26;;;;;;;16.15;14.45;;;11.70;96.70;;;;;;4981414;28;20042;-83
2020/12/19 10:51:53;;;;;;;16.27;13.75;;;11.70;96.70;;;;;;4964331;28;20493;-82
2020/12/19 10:54:20;;;;;;;17.00;13.90;;;11.70;96.70;;;;;;5005687;28;20047;-81
2020/12/19 10:56:57;;;;;;;19.60;17.13;;;11.70;96.70;;;;;;4979163;28;20219;-83
2020/12/19 10:59:24;;;;;;;19.90;16.75;;;11.80;96.70;;;;;;4985045;28;20511;-80
2020/12/19 11:01:51;;;;;;;22.67;17.33;;;11.80;96.70;;;;;;4985761;28;20042;-81
2020/12/19 11:04:18;;;;;;;18.02;16.08;;;11.80;96.70;;;;;;4982133;28;20034;-83
2020/12/19 11:06:45;;;;;;;17.75;15.85;;;11.80;96.70;;;;;;4962086;28;20062;-80
2020/12/19 11:09:13;;;;;;;17.40;15.32;;;11.80;96.70;;;;;;4966164;28;20046;-85
2020/12/19 11:11:41;;;;;;;18.92;15.05;;;11.80;96.70;;;;;;4980920;28;20046;-82
2020/12/19 11:14:09;;;;;;;17.10;14.23;;;11.80;96.70;;;;;;4983877;28;20045;-80
2020/12/19 11:16:36;;;;;;;16.83;15.02;;;11.90;96.70;;;;;;4982075;28;20046;-80
2020/12/19 11:19:03;;;;;;;18.17;14.23;;;11.90;96.70;;;;;;4982406;28;20041;-83
2020/12/19 11:21:30;;;;;;;16.42;14.07;;;11.90;96.70;;;;;;4980052;28;20050;-83
2020/12/19 11:23:57;;;;;;;15.80;14.07;;;12.00;96.70;;;;;;4983401;28;20042;-81
2020/12/19 11:26:24;;;;;;;17.55;13.57;;;12.00;96.70;;;;;;4983494;28;20050;-82
2020/12/19 11:28:52;;;;;;;17.50;14.15;;;12.00;96.70;;;;;;4980696;28;20046;-85
2020/12/19 11:31:26;;;;;;;17.00;13.52;;;12.10;96.70;;;;;;4966733;28;20071;-83
2020/12/19 11:33:54;;;;;;;17.40;14.13;;;12.10;96.70;;;;;;4963471;28;20038;-83
2020/12/19 11:36:22;;;;;;;17.92;14.55;;;12.10;96.70;;;;;;4981436;28;20039;-85
2020/12/19 11:38:50;;;;;;;15.15;13.55;;;12.10;96.70;;;;;;4981023;28;20042;-84
2020/12/19 11:41:34;;;;;;;18.52;14.60;;;12.20;96.70;;;;;;4974901;28;20053;-83
2020/12/19 11:44:02;;;;;;;21.85;14.50;;;12.20;96.70;;;;;;4965832;28;20061;-84
2020/12/19 11:46:30;;;;;;;16.60;14.02;;;12.20;96.70;;;;;;4967732;28;20094;-85
2020/12/19 11:48:57;;;;;;;19.85;15.10;;;12.30;96.70;;;;;;4954325;28;20038;-82
2020/12/19 11:51:27;;;;;;;17.20;14.18;;;12.30;96.70;;;;;;4979571;28;20144;-82
2020/12/19 11:53:54;;;;;;;18.10;13.98;;;12.30;96.70;;;;;;4984170;28;20042;-82
2020/12/19 11:56:21;;;;;;;17.23;14.55;;;12.40;96.70;;;;;;4981153;28;20101;-81
2020/12/19 11:58:48;;;;;;;16.30;13.90;;;12.40;96.70;;;;;;4981129;28;20038;-86
2020/12/19 12:01:15;;;;;;;19.00;15.15;;;12.30;96.70;;;;;;4977694;28;20038;-80
2020/12/19 12:03:43;;;;;;;18.08;14.25;;;12.30;96.70;;;;;;4966179;28;20539;-80
2020/12/19 12:06:11;;;;;;;19.23;14.88;;;12.30;96.70;;;;;;4981270;28;20046;-83
2020/12/19 12:08:41;;;;;;;20.67;16.60;;;12.30;96.70;;;;;;4979907;28;20038;-82
2020/12/19 12:11:09;;;;;;;20.65;16.75;;;12.30;96.70;;;;;;4978634;28;20038;-81
2020/12/19 12:13:37;;;;;;;17.05;15.23;;;12.30;96.70;;;;;;4980892;28;20043;-80
2020/12/19 12:16:08;;;;;;;16.02;13.88;;;12.30;96.70;;;;;;4974928;28;20046;-85
2020/12/19 12:18:36;;;;;;;16.52;13.48;;;12.30;96.70;;;;;;4979567;28;20057;-81
2020/12/19 12:21:04;;;;;;;16.17;13.98;;;12.40;96.70;;;;;;4963731;28;20050;-80
2020/12/19 12:23:31;;;;;;;17.45;13.23;;;12.40;96.70;;;;;;4965833;28;20459;-83
2020/12/19 12:25:59;;;;;;;15.80;13.15;;;12.40;96.70;;;;;;4979930;28;20030;-81
2020/12/19 12:28:26;;;;;;;16.90;13.32;;;12.40;96.70;;;;;;4978154;28;20606;-79
2020/12/19 12:30:53;;;;;;;14.52;12.98;;;12.50;96.70;;;;;;4981396;28;20038;-81
2020/12/19 12:33:20;;;;;;;16.75;13.00;;;12.50;96.70;;;;;;4981224;28;20113;-82
2020/12/19 12:35:47;;;;;;;16.10;13.43;;;12.50;96.70;;;;;;4975421;28;20047;-81
2020/12/19 12:38:16;;;;;;;14.77;12.40;;;12.50;96.70;;;;;;4981185;28;20131;-81
2020/12/19 12:40:43;;;;;;;14.02;11.10;;;12.60;96.70;;;;;;4980416;28;20060;-80
2020/12/19 12:43:10;;;;;;;14.18;12.75;;;12.60;96.70;;;;;;4978293;28;20082;-82
2020/12/19 12:45:38;;;;;;;14.60;12.50;;;12.60;96.70;;;;;;4979430;28;20046;-82
2020/12/19 12:48:05;;;;;;;15.80;11.98;;;12.70;96.70;;;;;;4981579;28;20038;-83